CheckWX is a tool to help pilots better visualize weather data.  It is not intended as a substitute for an official pre-flight weather briefing.

13:03:37 UTC

KSTC TAF
St Cloud Regional Airport
St Cloud, Minnesota, USA
KSTC 271125Z 2712/2812 VRB03KT P6SM SCT070 OVC200 FM271500 13005KT P6SM VCSH SCT040 OVC120 TEMPO 2716/2719 2SM TSRA BR BKN035CB FM271900 12006KT P6SM VCSH SCT025 BKN090 FM272200 10005KT P6SM FEW015 SCT070

Jun-27@
12:00 UTC

Jun-27 @ 12:00 UTC

Jun-27@
15:00 UTC

Jun-27 @ 15:00 UTC

KSTC 271125Z 2712/2812 VRB03KT P6SM SCT070 OVC200
Wind
  • Variable at 3 KTS
Cloud Levels
  • Scattered at 7,000' AGL
  • Overcast at 20,000' AGL

Jun-27@
15:00 UTC

Jun-27 @ 15:00 UTC

Jun-27@
19:00 UTC

Jun-27 @ 19:00 UTC

FM271500 13005KT P6SM VCSH SCT040 OVC120

From

From Standard forecast or significant change

Wind
  • 130° at 5 KTS
Cloud Levels
  • Scattered at 4,000' AGL
  • Overcast at 12,000' AGL

Jun-27@
16:00 UTC

Jun-27 @ 16:00 UTC

Jun-27@
19:00 UTC

Jun-27 @ 19:00 UTC

TEMPO 2716/2719 2SM TSRA BR BKN035CB

Temporary

Temporary Changes expected for less than half the time period

Conditions
Thunderstorm, Rain, Mist
Cloud Levels
  • Broken at 3,500' AGL

Jun-27@
19:00 UTC

Jun-27 @ 19:00 UTC

Jun-27@
22:00 UTC

Jun-27 @ 22:00 UTC

FM271900 12006KT P6SM VCSH SCT025 BKN090

From

From Standard forecast or significant change

Wind
  • 120° at 6 KTS
Cloud Levels
  • Scattered at 2,500' AGL
  • Broken at 9,000' AGL

Jun-27@
22:00 UTC

Jun-27 @ 22:00 UTC

Jun-28@
12:00 UTC

Jun-28 @ 12:00 UTC

FM272200 10005KT P6SM FEW015 SCT070

From

From Standard forecast or significant change

Wind
  • 100° at 5 KTS
Cloud Levels
  • Few at 1,500' AGL
  • Scattered at 7,000' AGL